sensor_id;sensor_type;location;lat;lon;timestamp;pressure;altitude;pressure_sealevel;temperature;humidity
21234;BME280;10774;42.178;26.578;2022-07-01T00:01:59;99880.03;;;19.66;93.59
21234;BME280;10774;42.178;26.578;2022-07-01T00:04:25;99884.06;;;20.05;91.95
21234;BME280;10774;42.178;26.578;2022-07-01T00:06:55;99885.19;;;20.21;90.88
21234;BME280;10774;42.178;26.578;2022-07-01T00:09:21;99896.78;;;20.49;90.24
21234;BME280;10774;42.178;26.578;2022-07-01T00:11:47;99901.66;;;20.71;89.07
21234;BME280;10774;42.178;26.578;2022-07-01T00:14:12;99876.41;;;20.69;88.43
21234;BME280;10774;42.178;26.578;2022-07-01T00:16:37;99874.59;;;20.78;87.11
21234;BME280;10774;42.178;26.578;2022-07-01T00:19:04;99879.34;;;20.76;86.23
21234;BME280;10774;42.178;26.578;2022-07-01T00:21:30;99857.06;;;20.46;85.60
21234;BME280;10774;42.178;26.578;2022-07-01T00:23:56;99880.63;;;20.55;85.00
21234;BME280;10774;42.178;26.578;2022-07-01T00:26:21;99873.88;;;20.68;83.89
21234;BME280;10774;42.178;26.578;2022-07-01T00:28:47;99861.22;;;20.67;83.25
21234;BME280;10774;42.178;26.578;2022-07-01T00:31:12;99863.94;;;20.67;82.53
21234;BME280;10774;42.178;26.578;2022-07-01T00:33:37;99877.59;;;20.32;84.13
21234;BME280;10774;42.178;26.578;2022-07-01T00:36:03;99853.25;;;20.39;83.27
21234;BME280;10774;42.178;26.578;2022-07-01T00:38:29;99849.75;;;20.47;81.99
21234;BME280;10774;42.178;26.578;2022-07-01T00:40:54;99845.44;;;20.44;81.77
21234;BME280;10774;42.178;26.578;2022-07-01T00:43:20;99850.13;;;20.26;82.55
21234;BME280;10774;42.178;26.578;2022-07-01T00:45:48;99832.06;;;20.25;81.86
21234;BME280;10774;42.178;26.578;2022-07-01T00:48:15;99828.63;;;20.15;82.05
21234;BME280;10774;42.178;26.578;2022-07-01T00:50:41;99843.31;;;20.30;81.82
21234;BME280;10774;42.178;26.578;2022-07-01T00:53:07;99850.09;;;19.92;83.39
21234;BME280;10774;42.178;26.578;2022-07-01T00:55:32;99848.81;;;20.04;83.05
21234;BME280;10774;42.178;26.578;2022-07-01T00:57:58;99853.88;;;20.25;82.19
21234;BME280;10774;42.178;26.578;2022-07-01T01:00:24;99853.72;;;20.00;83.23
21234;BME280;10774;42.178;26.578;2022-07-01T01:02:51;99843.03;;;19.81;84.38
21234;BME280;10774;42.178;26.578;2022-07-01T01:05:17;99840.75;;;19.94;83.65
21234;BME280;10774;42.178;26.578;2022-07-01T01:07:48;99826.69;;;19.81;83.82
21234;BME280;10774;42.178;26.578;2022-07-01T01:10:18;99852.53;;;19.77;84.08
21234;BME280;10774;42.178;26.578;2022-07-01T01:12:43;99847.69;;;19.63;84.88
21234;BME280;10774;42.178;26.578;2022-07-01T01:15:09;99854.19;;;19.70;84.48
21234;BME280;10774;42.178;26.578;2022-07-01T01:17:36;99848.13;;;19.58;84.65
21234;BME280;10774;42.178;26.578;2022-07-01T01:20:03;99859.91;;;19.41;85.82
21234;BME280;10774;42.178;26.578;2022-07-01T01:22:28;99858.72;;;19.61;85.27
21234;BME280;10774;42.178;26.578;2022-07-01T01:24:54;99844.41;;;19.41;85.66
21234;BME280;10774;42.178;26.578;2022-07-01T01:27:19;99863.88;;;19.46;85.57
21234;BME280;10774;42.178;26.578;2022-07-01T01:29:45;99850.00;;;19.40;85.69
21234;BME280;10774;42.178;26.578;2022-07-01T01:32:10;99839.97;;;19.40;85.63
21234;BME280;10774;42.178;26.578;2022-07-01T01:34:37;99848.22;;;19.48;85.52
21234;BME280;10774;42.178;26.578;2022-07-01T01:37:05;99850.78;;;19.50;85.64
21234;BME280;10774;42.178;26.578;2022-07-01T01:39:30;99842.56;;;19.42;85.38
21234;BME280;10774;42.178;26.578;2022-07-01T01:41:56;99846.66;;;19.28;85.64
21234;BME280;10774;42.178;26.578;2022-07-01T01:44:21;99837.75;;;19.36;85.35
21234;BME280;10774;42.178;26.578;2022-07-01T01:46:47;99848.41;;;18.93;87.70
21234;BME280;10774;42.178;26.578;2022-07-01T01:49:12;99848.41;;;19.11;86.92
21234;BME280;10774;42.178;26.578;2022-07-01T01:51:38;99854.69;;;19.12;86.89
21234;BME280;10774;42.178;26.578;2022-07-01T01:54:04;99844.28;;;19.25;86.53
21234;BME280;10774;42.178;26.578;2022-07-01T01:56:29;99854.94;;;19.36;86.45
21234;BME280;10774;42.178;26.578;2022-07-01T01:58:55;99847.22;;;19.31;86.08
21234;BME280;10774;42.178;26.578;2022-07-01T02:01:21;99844.59;;;19.22;86.30
21234;BME280;10774;42.178;26.578;2022-07-01T02:03:48;99850.84;;;19.40;86.08
21234;BME280;10774;42.178;26.578;2022-07-01T02:06:15;99852.97;;;19.28;86.28
21234;BME280;10774;42.178;26.578;2022-07-01T02:08:41;99850.13;;;19.30;86.57
21234;BME280;10774;42.178;26.578;2022-07-01T02:11:07;99851.81;;;19.31;86.05
21234;BME280;10774;42.178;26.578;2022-07-01T02:13:34;99846.13;;;19.06;86.94
21234;BME280;10774;42.178;26.578;2022-07-01T02:15:59;99845.06;;;18.99;87.22
21234;BME280;10774;42.178;26.578;2022-07-01T02:18:25;99834.00;;;19.01;87.13
21234;BME280;10774;42.178;26.578;2022-07-01T02:20:50;99829.50;;;19.10;86.70
21234;BME280;10774;42.178;26.578;2022-07-01T02:23:17;99846.97;;;19.43;85.51
21234;BME280;10774;42.178;26.578;2022-07-01T02:25:42;99855.56;;;19.30;85.54
21234;BME280;10774;42.178;26.578;2022-07-01T02:28:08;99854.78;;;19.20;86.48
21234;BME280;10774;42.178;26.578;2022-07-01T02:30:34;99854.44;;;19.23;86.01
21234;BME280;10774;42.178;26.578;2022-07-01T02:33:04;99858.41;;;19.28;85.79
21234;BME280;10774;42.178;26.578;2022-07-01T02:35:31;99875.72;;;19.45;85.06
21234;BME280;10774;42.178;26.578;2022-07-01T02:37:57;99879.81;;;19.41;85.24
21234;BME280;10774;42.178;26.578;2022-07-01T02:40:23;99871.19;;;19.10;86.12
21234;BME280;10774;42.178;26.578;2022-07-01T02:42:48;99884.31;;;19.15;86.05
21234;BME280;10774;42.178;26.578;2022-07-01T02:45:14;99886.72;;;19.18;86.23
21234;BME280;10774;42.178;26.578;2022-07-01T02:47:40;99874.03;;;19.08;86.43
21234;BME280;10774;42.178;26.578;2022-07-01T02:50:08;99878.56;;;19.18;85.98
21234;BME280;10774;42.178;26.578;2022-07-01T02:52:35;99903.44;;;19.23;86.29
21234;BME280;10774;42.178;26.578;2022-07-01T02:55:01;99897.50;;;19.45;85.29
21234;BME280;10774;42.178;26.578;2022-07-01T02:57:27;99887.19;;;19.31;85.47
21234;BME280;10774;42.178;26.578;2022-07-01T02:59:52;99890.84;;;19.22;86.01
21234;BME280;10774;42.178;26.578;2022-07-01T03:02:21;99870.06;;;18.85;87.69
21234;BME280;10774;42.178;26.578;2022-07-01T03:04:47;99882.81;;;19.02;86.87
21234;BME280;10774;42.178;26.578;2022-07-01T03:07:14;99898.00;;;19.23;86.48
21234;BME280;10774;42.178;26.578;2022-07-01T03:09:39;99888.59;;;19.17;86.17
21234;BME280;10774;42.178;26.578;2022-07-01T03:12:09;99893.88;;;19.19;86.34
21234;BME280;10774;42.178;26.578;2022-07-01T03:17:30;99888.97;;;19.40;85.05
21234;BME280;10774;42.178;26.578;2022-07-01T03:19:56;99895.38;;;19.31;85.60
21234;BME280;10774;42.178;26.578;2022-07-01T03:22:23;99893.31;;;19.33;85.61
21234;BME280;10774;42.178;26.578;2022-07-01T03:24:50;99883.13;;;19.35;85.54
21234;BME280;10774;42.178;26.578;2022-07-01T03:27:17;99881.81;;;19.39;85.46
21234;BME280;10774;42.178;26.578;2022-07-01T03:29:43;99884.63;;;19.47;85.21
21234;BME280;10774;42.178;26.578;2022-07-01T03:32:09;99882.44;;;19.33;85.29
21234;BME280;10774;42.178;26.578;2022-07-01T03:34:39;99893.47;;;19.49;85.39
21234;BME280;10774;42.178;26.578;2022-07-01T03:37:06;99902.97;;;19.81;84.01
21234;BME280;10774;42.178;26.578;2022-07-01T03:39:33;99893.19;;;19.96;83.26
21234;BME280;10774;42.178;26.578;2022-07-01T03:41:58;99889.78;;;20.20;81.09
21234;BME280;10774;42.178;26.578;2022-07-01T03:44:24;99885.41;;;20.01;81.62
21234;BME280;10774;42.178;26.578;2022-07-01T03:46:49;99888.66;;;20.05;81.24
21234;BME280;10774;42.178;26.578;2022-07-01T03:49:15;99891.78;;;20.10;82.14
21234;BME280;10774;42.178;26.578;2022-07-01T03:51:40;99898.91;;;20.37;80.84
21234;BME280;10774;42.178;26.578;2022-07-01T03:54:06;99894.84;;;20.41;80.77
21234;BME280;10774;42.178;26.578;2022-07-01T03:56:50;99900.16;;;20.17;81.44
21234;BME280;10774;42.178;26.578;2022-07-01T03:59:15;99882.88;;;20.08;81.94
21234;BME280;10774;42.178;26.578;2022-07-01T04:01:41;99888.97;;;20.28;81.14
21234;BME280;10774;42.178;26.578;2022-07-01T04:04:06;99903.94;;;20.50;80.95
21234;BME280;10774;42.178;26.578;2022-07-01T04:06:31;99900.41;;;20.31;81.59
21234;BME280;10774;42.178;26.578;2022-07-01T04:08:57;99900.72;;;20.28;81.40
21234;BME280;10774;42.178;26.578;2022-07-01T04:11:23;99902.31;;;20.39;81.26
21234;BME280;10774;42.178;26.578;2022-07-01T04:13:48;99914.78;;;20.68;80.74
21234;BME280;10774;42.178;26.578;2022-07-01T04:16:17;99910.28;;;20.58;81.40
21234;BME280;10774;42.178;26.578;2022-07-01T04:18:43;99925.41;;;20.87;80.82
21234;BME280;10774;42.178;26.578;2022-07-01T04:21:09;99917.56;;;20.84;80.61
21234;BME280;10774;42.178;26.578;2022-07-01T04:23:53;99920.97;;;20.86;80.43
21234;BME280;10774;42.178;26.578;2022-07-01T04:26:18;99915.56;;;20.94;80.25
21234;BME280;10774;42.178;26.578;2022-07-01T04:28:44;99928.91;;;21.13;80.07
21234;BME280;10774;42.178;26.578;2022-07-01T04:31:09;99935.81;;;21.34;78.71
21234;BME280;10774;42.178;26.578;2022-07-01T04:33:35;99926.22;;;21.22;79.35
21234;BME280;10774;42.178;26.578;2022-07-01T04:36:00;99930.03;;;21.37;78.87
21234;BME280;10774;42.178;26.578;2022-07-01T04:38:26;99928.13;;;21.46;78.24
21234;BME280;10774;42.178;26.578;2022-07-01T04:40:51;99932.75;;;21.45;79.33
21234;BME280;10774;42.178;26.578;2022-07-01T04:43:35;99937.53;;;21.51;78.89
21234;BME280;10774;42.178;26.578;2022-07-01T04:46:00;99938.59;;;21.99;76.38
21234;BME280;10774;42.178;26.578;2022-07-01T04:48:26;99929.00;;;22.03;76.10
21234;BME280;10774;42.178;26.578;2022-07-01T04:50:51;99938.59;;;22.24;75.54
21234;BME280;10774;42.178;26.578;2022-07-01T04:53:17;99939.25;;;22.34;74.73
21234;BME280;10774;42.178;26.578;2022-07-01T04:55:42;99941.81;;;22.35;75.24
21234;BME280;10774;42.178;26.578;2022-07-01T04:58:08;99940.28;;;22.41;74.70
21234;BME280;10774;42.178;26.578;2022-07-01T05:00:33;99935.81;;;22.40;74.30
21234;BME280;10774;42.178;26.578;2022-07-01T05:02:58;99941.56;;;22.61;73.46
21234;BME280;10774;42.178;26.578;2022-07-01T05:05:24;99948.25;;;22.59;73.65
21234;BME280;10774;42.178;26.578;2022-07-01T05:07:49;99938.81;;;22.69;73.67
21234;BME280;10774;42.178;26.578;2022-07-01T05:10:15;99939.63;;;22.23;75.84
21234;BME280;10774;42.178;26.578;2022-07-01T05:12:40;99941.81;;;22.03;76.90
21234;BME280;10774;42.178;26.578;2022-07-01T05:15:06;99927.97;;;22.37;75.83
21234;BME280;10774;42.178;26.578;2022-07-01T05:17:33;99945.06;;;22.86;73.88
21234;BME280;10774;42.178;26.578;2022-07-01T05:20:27;99946.03;;;23.10;72.34
21234;BME280;10774;42.178;26.578;2022-07-01T05:23:11;99933.78;;;23.29;71.39
21234;BME280;10774;42.178;26.578;2022-07-01T05:25:36;99946.00;;;23.41;71.43
21234;BME280;10774;42.178;26.578;2022-07-01T05:28:02;99935.97;;;23.56;69.66
21234;BME280;10774;42.178;26.578;2022-07-01T05:30:27;99943.81;;;23.90;69.05
21234;BME280;10774;42.178;26.578;2022-07-01T05:32:53;99933.53;;;24.07;65.96
21234;BME280;10774;42.178;26.578;2022-07-01T05:35:18;99944.75;;;24.20;65.20
21234;BME280;10774;42.178;26.578;2022-07-01T05:37:44;99938.97;;;24.30;64.54
21234;BME280;10774;42.178;26.578;2022-07-01T05:40:10;99929.25;;;24.57;64.32
21234;BME280;10774;42.178;26.578;2022-07-01T05:42:35;99951.44;;;24.85;63.54
21234;BME280;10774;42.178;26.578;2022-07-01T05:45:00;99950.09;;;24.96;62.82
21234;BME280;10774;42.178;26.578;2022-07-01T05:47:26;99948.78;;;25.07;61.74
21234;BME280;10774;42.178;26.578;2022-07-01T05:49:51;99949.78;;;25.20;60.83
21234;BME280;10774;42.178;26.578;2022-07-01T05:52:17;99936.44;;;25.17;60.66
21234;BME280;10774;42.178;26.578;2022-07-01T05:54:42;99934.47;;;25.11;61.10
21234;BME280;10774;42.178;26.578;2022-07-01T05:57:08;99942.16;;;24.86;61.76
21234;BME280;10774;42.178;26.578;2022-07-01T05:59:34;99950.16;;;25.32;59.84
21234;BME280;10774;42.178;26.578;2022-07-01T06:01:59;99948.13;;;25.41;59.68
21234;BME280;10774;42.178;26.578;2022-07-01T06:04:25;99956.72;;;25.16;62.12
21234;BME280;10774;42.178;26.578;2022-07-01T06:06:50;99944.84;;;25.52;60.94
21234;BME280;10774;42.178;26.578;2022-07-01T06:09:16;99939.13;;;25.68;61.28
21234;BME280;10774;42.178;26.578;2022-07-01T06:11:41;99937.59;;;25.80;59.90
21234;BME280;10774;42.178;26.578;2022-07-01T06:14:07;99933.91;;;25.95;58.63
21234;BME280;10774;42.178;26.578;2022-07-01T06:16:32;99939.06;;;26.04;58.03
21234;BME280;10774;42.178;26.578;2022-07-01T06:18:58;99953.78;;;26.18;57.26
21234;BME280;10774;42.178;26.578;2022-07-01T06:21:24;99945.56;;;26.25;57.60
21234;BME280;10774;42.178;26.578;2022-07-01T06:23:49;99943.28;;;26.28;57.26
21234;BME280;10774;42.178;26.578;2022-07-01T06:26:14;99942.38;;;26.43;56.92
21234;BME280;10774;42.178;26.578;2022-07-01T06:28:41;99948.72;;;26.43;56.81
21234;BME280;10774;42.178;26.578;2022-07-01T06:31:06;99946.75;;;26.65;56.10
21234;BME280;10774;42.178;26.578;2022-07-01T06:33:32;99946.00;;;26.84;55.24
21234;BME280;10774;42.178;26.578;2022-07-01T06:35:58;99949.91;;;27.03;55.12
21234;BME280;10774;42.178;26.578;2022-07-01T06:38:23;99947.91;;;27.25;53.93
21234;BME280;10774;42.178;26.578;2022-07-01T06:40:49;99940.69;;;27.24;53.50
21234;BME280;10774;42.178;26.578;2022-07-01T06:43:34;99946.75;;;26.37;56.46
21234;BME280;10774;42.178;26.578;2022-07-01T06:46:00;99933.28;;;26.83;56.13
21234;BME280;10774;42.178;26.578;2022-07-01T06:48:25;99948.72;;;27.19;54.37
21234;BME280;10774;42.178;26.578;2022-07-01T06:50:51;99944.75;;;26.94;53.61
21234;BME280;10774;42.178;26.578;2022-07-01T06:53:16;99947.88;;;27.12;53.40
21234;BME280;10774;42.178;26.578;2022-07-01T06:55:44;99943.88;;;27.21;53.22
21234;BME280;10774;42.178;26.578;2022-07-01T06:58:10;99933.88;;;27.20;52.19
21234;BME280;10774;42.178;26.578;2022-07-01T07:00:36;99940.75;;;27.38;51.46
21234;BME280;10774;42.178;26.578;2022-07-01T07:03:01;99942.44;;;27.32;51.45
21234;BME280;10774;42.178;26.578;2022-07-01T07:05:27;99942.84;;;27.35;52.34
21234;BME280;10774;42.178;26.578;2022-07-01T07:07:56;99945.25;;;27.04;53.75
21234;BME280;10774;42.178;26.578;2022-07-01T07:10:21;99938.47;;;27.00;53.87
21234;BME280;10774;42.178;26.578;2022-07-01T07:12:47;99926.63;;;27.06;53.64
21234;BME280;10774;42.178;26.578;2022-07-01T07:15:12;99931.56;;;27.17;53.34
21234;BME280;10774;42.178;26.578;2022-07-01T07:17:38;99946.56;;;27.08;53.06
21234;BME280;10774;42.178;26.578;2022-07-01T07:20:03;99935.53;;;27.08;53.17
21234;BME280;10774;42.178;26.578;2022-07-01T07:22:29;99952.44;;;27.05;54.12
21234;BME280;10774;42.178;26.578;2022-07-01T07:24:54;99941.44;;;27.05;54.67
21234;BME280;10774;42.178;26.578;2022-07-01T07:27:20;99957.59;;;27.15;54.06
21234;BME280;10774;42.178;26.578;2022-07-01T07:29:45;99948.94;;;26.83;56.08
21234;BME280;10774;42.178;26.578;2022-07-01T07:32:11;99953.97;;;26.73;58.59
21234;BME280;10774;42.178;26.578;2022-07-01T07:34:36;99952.78;;;26.47;60.97
21234;BME280;10774;42.178;26.578;2022-07-01T07:37:02;99968.56;;;27.01;59.26
21234;BME280;10774;42.178;26.578;2022-07-01T07:39:28;99955.63;;;27.50;55.46
21234;BME280;10774;42.178;26.578;2022-07-01T07:41:53;99969.31;;;27.98;53.92
21234;BME280;10774;42.178;26.578;2022-07-01T07:44:19;99954.25;;;28.07;53.75
21234;BME280;10774;42.178;26.578;2022-07-01T07:46:44;99957.44;;;28.50;51.07
21234;BME280;10774;42.178;26.578;2022-07-01T07:49:10;99952.38;;;28.40;49.23
21234;BME280;10774;42.178;26.578;2022-07-01T07:51:35;99964.41;;;28.73;46.59
21234;BME280;10774;42.178;26.578;2022-07-01T07:54:01;99963.09;;;28.88;45.21
21234;BME280;10774;42.178;26.578;2022-07-01T07:56:28;99945.91;;;28.86;46.03
21234;BME280;10774;42.178;26.578;2022-07-01T07:58:54;99957.31;;;29.10;46.25
21234;BME280;10774;42.178;26.578;2022-07-01T08:01:19;99957.69;;;29.20;45.80
21234;BME280;10774;42.178;26.578;2022-07-01T08:03:45;99951.25;;;29.39;45.61
21234;BME280;10774;42.178;26.578;2022-07-01T08:06:10;99952.03;;;29.47;42.26
21234;BME280;10774;42.178;26.578;2022-07-01T08:08:36;99952.03;;;29.47;43.52
21234;BME280;10774;42.178;26.578;2022-07-01T08:11:01;99968.69;;;28.75;43.61
21234;BME280;10774;42.178;26.578;2022-07-01T08:13:27;99960.75;;;28.99;43.51
21234;BME280;10774;42.178;26.578;2022-07-01T08:15:53;99954.56;;;29.10;44.20
21234;BME280;10774;42.178;26.578;2022-07-01T08:18:18;99968.69;;;28.75;45.36
21234;BME280;10774;42.178;26.578;2022-07-01T08:20:44;99945.88;;;29.06;44.24
21234;BME280;10774;42.178;26.578;2022-07-01T08:23:09;99959.13;;;28.71;45.96
21234;BME280;10774;42.178;26.578;2022-07-01T08:25:34;99954.81;;;29.02;45.85
21234;BME280;10774;42.178;26.578;2022-07-01T08:28:00;99964.75;;;29.16;45.17
21234;BME280;10774;42.178;26.578;2022-07-01T08:30:25;99944.91;;;29.32;45.23
21234;BME280;10774;42.178;26.578;2022-07-01T08:32:51;99953.28;;;29.64;44.93
21234;BME280;10774;42.178;26.578;2022-07-01T08:35:16;99943.84;;;29.72;44.67
21234;BME280;10774;42.178;26.578;2022-07-01T08:37:42;99949.13;;;29.35;45.50
21234;BME280;10774;42.178;26.578;2022-07-01T08:40:07;99935.22;;;29.86;42.59
21234;BME280;10774;42.178;26.578;2022-07-01T08:42:33;99947.03;;;29.75;42.10
21234;BME280;10774;42.178;26.578;2022-07-01T08:44:59;99935.72;;;30.33;42.02
21234;BME280;10774;42.178;26.578;2022-07-01T08:47:24;99937.00;;;30.31;41.80
21234;BME280;10774;42.178;26.578;2022-07-01T08:49:49;99935.91;;;30.57;40.61
21234;BME280;10774;42.178;26.578;2022-07-01T08:52:15;99939.34;;;30.52;41.34
21234;BME280;10774;42.178;26.578;2022-07-01T08:54:40;99929.28;;;30.39;39.94
21234;BME280;10774;42.178;26.578;2022-07-01T08:57:06;99934.81;;;30.39;36.15
21234;BME280;10774;42.178;26.578;2022-07-01T08:59:32;99939.31;;;30.59;36.53
21234;BME280;10774;42.178;26.578;2022-07-01T09:02:03;99935.81;;;30.70;37.21
21234;BME280;10774;42.178;26.578;2022-07-01T09:04:30;99943.44;;;30.75;37.65
21234;BME280;10774;42.178;26.578;2022-07-01T09:07:07;99927.47;;;31.43;38.23
21234;BME280;10774;42.178;26.578;2022-07-01T09:09:38;99938.53;;;31.25;37.10
21234;BME280;10774;42.178;26.578;2022-07-01T09:12:04;99927.34;;;31.02;37.73
21234;BME280;10774;42.178;26.578;2022-07-01T09:14:32;99939.50;;;31.79;38.37
21234;BME280;10774;42.178;26.578;2022-07-01T09:17:00;99925.84;;;31.66;36.15
21234;BME280;10774;42.178;26.578;2022-07-01T09:19:28;99936.09;;;31.65;37.42
21234;BME280;10774;42.178;26.578;2022-07-01T09:21:56;99929.09;;;32.05;34.80
21234;BME280;10774;42.178;26.578;2022-07-01T09:24:36;99933.28;;;31.84;35.21
21234;BME280;10774;42.178;26.578;2022-07-01T09:27:07;99934.97;;;32.38;36.53
21234;BME280;10774;42.178;26.578;2022-07-01T09:29:39;99930.97;;;32.58;33.39
21234;BME280;10774;42.178;26.578;2022-07-01T09:32:07;99937.38;;;32.58;33.50
21234;BME280;10774;42.178;26.578;2022-07-01T09:37:14;99925.84;;;33.13;34.85
21234;BME280;10774;42.178;26.578;2022-07-01T09:42:08;99916.00;;;32.35;34.55
21234;BME280;10774;42.178;26.578;2022-07-01T09:44:34;99920.94;;;32.57;34.30
21234;BME280;10774;42.178;26.578;2022-07-01T09:46:59;99904.72;;;32.89;35.79
21234;BME280;10774;42.178;26.578;2022-07-01T09:49:28;99916.44;;;32.79;33.32
21234;BME280;10774;42.178;26.578;2022-07-01T09:51:53;99919.13;;;32.50;34.05
21234;BME280;10774;42.178;26.578;2022-07-01T09:54:19;99906.63;;;33.12;33.68
21234;BME280;10774;42.178;26.578;2022-07-01T09:56:45;99912.59;;;32.80;33.42
21234;BME280;10774;42.178;26.578;2022-07-01T09:59:11;99910.31;;;32.42;34.45
21234;BME280;10774;42.178;26.578;2022-07-01T10:01:38;99918.13;;;32.10;34.65
21234;BME280;10774;42.178;26.578;2022-07-01T10:04:06;99910.41;;;32.12;34.29
21234;BME280;10774;42.178;26.578;2022-07-01T10:06:53;99909.66;;;32.16;35.33
21234;BME280;10774;42.178;26.578;2022-07-01T10:09:40;99900.81;;;33.13;36.83
21234;BME280;10774;42.178;26.578;2022-07-01T10:12:18;99902.13;;;33.68;35.02
21234;BME280;10774;42.178;26.578;2022-07-01T10:14:50;99895.38;;;33.07;33.11
21234;BME280;10774;42.178;26.578;2022-07-01T10:17:40;99884.75;;;33.44;32.54
21234;BME280;10774;42.178;26.578;2022-07-01T10:20:29;99886.56;;;33.38;32.97
21234;BME280;10774;42.178;26.578;2022-07-01T10:23:01;99882.97;;;33.26;31.42
21234;BME280;10774;42.178;26.578;2022-07-01T10:25:33;99879.28;;;33.37;33.14
21234;BME280;10774;42.178;26.578;2022-07-01T10:33:38;99874.06;;;33.12;32.23
21234;BME280;10774;42.178;26.578;2022-07-01T10:41:25;99860.97;;;34.76;32.86
21234;BME280;10774;42.178;26.578;2022-07-01T10:43:53;99854.00;;;34.18;30.19
21234;BME280;10774;42.178;26.578;2022-07-01T10:52:05;99860.41;;;34.18;30.46
21234;BME280;10774;42.178;26.578;2022-07-01T10:59:48;99852.66;;;35.25;32.25
21234;BME280;10774;42.178;26.578;2022-07-01T11:02:29;99846.22;;;35.46;32.02
21234;BME280;10774;42.178;26.578;2022-07-01T11:05:03;99838.81;;;35.35;30.54
21234;BME280;10774;42.178;26.578;2022-07-01T11:07:34;99835.44;;;35.33;31.23
21234;BME280;10774;42.178;26.578;2022-07-01T11:10:02;99838.81;;;35.08;29.44
21234;BME280;10774;42.178;26.578;2022-07-01T11:12:29;99831.00;;;35.37;30.20
21234;BME280;10774;42.178;26.578;2022-07-01T11:14:56;99839.66;;;35.62;30.44
21234;BME280;10774;42.178;26.578;2022-07-01T11:17:27;99857.19;;;35.58;29.87
21234;BME280;10774;42.178;26.578;2022-07-01T11:19:55;99835.13;;;35.29;29.17
21234;BME280;10774;42.178;26.578;2022-07-01T11:22:29;99845.25;;;35.62;29.98
21234;BME280;10774;42.178;26.578;2022-07-01T11:25:00;99844.41;;;35.35;28.21
21234;BME280;10774;42.178;26.578;2022-07-01T11:27:26;99836.88;;;35.95;28.23
21234;BME280;10774;42.178;26.578;2022-07-01T11:30:14;99829.41;;;35.73;28.76
21234;BME280;10774;42.178;26.578;2022-07-01T11:32:44;99824.00;;;34.85;28.84
21234;BME280;10774;42.178;26.578;2022-07-01T11:35:19;99815.13;;;34.67;29.43
21234;BME280;10774;42.178;26.578;2022-07-01T11:38:24;99822.81;;;35.52;30.34
21234;BME280;10774;42.178;26.578;2022-07-01T11:41:24;99826.81;;;35.61;29.80
21234;BME280;10774;42.178;26.578;2022-07-01T11:43:50;99804.09;;;35.85;29.61
21234;BME280;10774;42.178;26.578;2022-07-01T11:46:17;99803.34;;;36.37;28.80
21234;BME280;10774;42.178;26.578;2022-07-01T11:48:44;99806.84;;;36.54;28.98
21234;BME280;10774;42.178;26.578;2022-07-01T11:51:19;99809.91;;;36.16;27.97
21234;BME280;10774;42.178;26.578;2022-07-01T11:53:47;99811.69;;;35.57;28.42
21234;BME280;10774;42.178;26.578;2022-07-01T11:56:14;99789.94;;;35.59;28.04
21234;BME280;10774;42.178;26.578;2022-07-01T12:01:36;99789.38;;;35.03;28.52
21234;BME280;10774;42.178;26.578;2022-07-01T12:04:05;99802.03;;;35.70;28.76
21234;BME280;10774;42.178;26.578;2022-07-01T12:06:32;99792.53;;;36.03;29.11
21234;BME280;10774;42.178;26.578;2022-07-01T12:08:58;99796.97;;;36.42;28.44
21234;BME280;10774;42.178;26.578;2022-07-01T12:11:25;99795.47;;;36.81;28.56
21234;BME280;10774;42.178;26.578;2022-07-01T12:13:53;99783.53;;;36.44;29.60
21234;BME280;10774;42.178;26.578;2022-07-01T12:16:19;99782.25;;;36.67;29.69
21234;BME280;10774;42.178;26.578;2022-07-01T12:18:59;99777.34;;;36.99;28.17
21234;BME280;10774;42.178;26.578;2022-07-01T12:21:29;99792.44;;;36.93;27.98
21234;BME280;10774;42.178;26.578;2022-07-01T12:24:13;99786.34;;;37.27;28.42
21234;BME280;10774;42.178;26.578;2022-07-01T12:29:18;99772.28;;;36.91;27.61
21234;BME280;10774;42.178;26.578;2022-07-01T12:32:00;99782.34;;;36.87;28.72
21234;BME280;10774;42.178;26.578;2022-07-01T12:37:37;99782.97;;;37.09;27.92
21234;BME280;10774;42.178;26.578;2022-07-01T12:40:04;99784.13;;;37.80;28.65
21234;BME280;10774;42.178;26.578;2022-07-01T12:42:32;99782.44;;;38.09;27.94
21234;BME280;10774;42.178;26.578;2022-07-01T12:45:09;99775.72;;;37.29;27.97
21234;BME280;10774;42.178;26.578;2022-07-01T12:47:37;99775.84;;;36.19;27.71
21234;BME280;10774;42.178;26.578;2022-07-01T12:53:06;99749.94;;;38.13;27.93
21234;BME280;10774;42.178;26.578;2022-07-01T12:55:34;99758.72;;;38.66;26.05
21234;BME280;10774;42.178;26.578;2022-07-01T12:58:02;99755.75;;;38.37;27.24
21234;BME280;10774;42.178;26.578;2022-07-01T13:00:29;99751.00;;;38.17;27.09
21234;BME280;10774;42.178;26.578;2022-07-01T13:02:57;99761.50;;;38.77;27.57
21234;BME280;10774;42.178;26.578;2022-07-01T13:05:22;99766.84;;;39.22;27.00
21234;BME280;10774;42.178;26.578;2022-07-01T13:07:48;99766.72;;;38.99;26.97
21234;BME280;10774;42.178;26.578;2022-07-01T13:10:15;99764.00;;;39.28;27.15
21234;BME280;10774;42.178;26.578;2022-07-01T13:12:41;99766.03;;;39.56;26.39
21234;BME280;10774;42.178;26.578;2022-07-01T13:15:07;99778.88;;;39.67;25.56
21234;BME280;10774;42.178;26.578;2022-07-01T13:17:32;99756.44;;;39.23;25.60
21234;BME280;10774;42.178;26.578;2022-07-01T13:19:58;99754.84;;;39.80;25.61
21234;BME280;10774;42.178;26.578;2022-07-01T13:22:23;99762.59;;;40.22;25.68
21234;BME280;10774;42.178;26.578;2022-07-01T13:24:49;99757.56;;;40.86;24.91
21234;BME280;10774;42.178;26.578;2022-07-01T13:27:14;99761.50;;;38.71;26.11
21234;BME280;10774;42.178;26.578;2022-07-01T13:29:40;99737.91;;;37.21;26.89
21234;BME280;10774;42.178;26.578;2022-07-01T13:32:06;99758.28;;;36.91;27.96
21234;BME280;10774;42.178;26.578;2022-07-01T13:34:35;99762.31;;;37.66;27.40